createdAt,value
2019-05-15T00:01:53.545Z,62.50
2019-05-15T00:04:22.616Z,62.50
2019-05-15T00:06:51.835Z,62.50
2019-05-15T00:09:20.949Z,62.50
2019-05-15T00:11:50.032Z,62.70
2019-05-15T00:14:19.167Z,62.80
2019-05-15T00:16:48.360Z,62.80
2019-05-15T00:19:18.806Z,62.80
2019-05-15T00:21:48.994Z,62.90
2019-05-15T00:24:18.287Z,62.90
2019-05-15T00:26:48.107Z,63.00
2019-05-15T00:29:19.743Z,63.10
2019-05-15T00:31:48.558Z,63.20
2019-05-15T00:34:18.323Z,63.20
2019-05-15T00:36:48.905Z,63.30
2019-05-15T00:39:18.977Z,64.10
2019-05-15T00:41:54.031Z,63.40
2019-05-15T00:44:18.950Z,63.40
2019-05-15T00:46:48.761Z,63.60
2019-05-15T00:49:18.939Z,63.70
2019-05-15T00:52:11.755Z,63.70
2019-05-15T00:54:38.861Z,63.70
2019-05-15T00:57:10.753Z,63.70
2019-05-15T00:59:39.790Z,63.70
2019-05-15T01:02:08.900Z,63.70
2019-05-15T01:04:58.572Z,63.80
2019-05-15T01:07:28.198Z,63.80
2019-05-15T01:09:57.962Z,63.90
2019-05-15T01:12:29.043Z,64.00
2019-05-15T01:14:58.323Z,64.10
2019-05-15T01:17:49.042Z,64.20
2019-05-15T01:20:18.952Z,64.30
2019-05-15T01:22:48.536Z,64.40
2019-05-15T01:25:18.640Z,64.50
2019-05-15T01:27:48.960Z,64.50
2019-05-15T01:30:18.238Z,64.70
2019-05-15T01:32:48.582Z,64.90
2019-05-15T01:35:18.062Z,64.90
2019-05-15T01:37:48.329Z,64.90
2019-05-15T01:40:18.208Z,65.10
2019-05-15T01:42:47.378Z,65.10
2019-05-15T01:45:16.439Z,66.10
2019-05-15T01:47:47.879Z,65.50
2019-05-15T01:50:18.415Z,65.60
2019-05-15T01:52:47.919Z,65.80
2019-05-15T01:55:18.194Z,66.00
2019-05-15T01:57:48.803Z,66.10
2019-05-15T02:00:18.828Z,66.20
2019-05-15T02:02:48.501Z,66.30
2019-05-15T02:05:18.799Z,66.40
2019-05-15T02:07:48.602Z,66.50
2019-05-15T02:10:18.631Z,67.20
2019-05-15T02:12:48.163Z,66.60
2019-05-15T02:15:19.039Z,66.80
2019-05-15T02:17:48.210Z,66.80
2019-05-15T02:20:18.725Z,66.90
2019-05-15T02:22:48.507Z,67.00
2019-05-15T02:25:18.535Z,66.90
2019-05-15T02:27:48.008Z,67.00
2019-05-15T02:30:27.909Z,67.80
2019-05-15T02:32:50.114Z,67.20
2019-05-15T02:35:18.603Z,67.10
2019-05-15T02:37:48.942Z,67.20
2019-05-15T02:40:19.012Z,67.30
2019-05-15T02:42:49.282Z,67.30
2019-05-15T02:45:41.739Z,67.30
2019-05-15T02:48:09.424Z,67.40
2019-05-15T02:50:39.199Z,67.40
2019-05-15T02:53:10.911Z,67.50
2019-05-15T02:55:40.616Z,67.60
2019-05-15T02:58:10.584Z,67.70
2019-05-15T03:00:47.296Z,67.80
2019-05-15T03:03:10.721Z,67.90
2019-05-15T03:05:40.963Z,68.00
2019-05-15T03:08:10.228Z,68.10
2019-05-15T03:10:40.678Z,68.20
2019-05-15T03:13:10.276Z,68.30
2019-05-15T03:15:40.493Z,68.30
2019-05-15T03:18:10.199Z,68.30
2019-05-15T03:20:39.797Z,68.50
2019-05-15T03:23:09.964Z,68.60
2019-05-15T03:25:40.565Z,68.80
2019-05-15T03:28:12.842Z,68.90
2019-05-15T03:31:13.426Z,69.00
2019-05-15T03:33:25.014Z,69.10
2019-05-15T03:35:44.614Z,69.20
2019-05-15T03:38:13.991Z,69.30
2019-05-15T03:40:43.058Z,69.40
2019-05-15T03:43:12.076Z,69.40
2019-05-15T03:45:41.133Z,69.40
2019-05-15T03:48:10.210Z,69.60
2019-05-15T03:50:40.544Z,69.60
2019-05-15T03:53:10.769Z,69.70
2019-05-15T03:55:40.778Z,69.70
2019-05-15T03:58:10.420Z,69.80
2019-05-15T04:00:40.061Z,69.80
2019-05-15T04:03:11.017Z,69.90
2019-05-15T04:05:39.922Z,70.00
2019-05-15T04:08:11.080Z,69.90
2019-05-15T04:10:40.312Z,70.00
2019-05-15T04:13:09.932Z,70.00
2019-05-15T04:15:39.985Z,70.00
2019-05-15T04:18:13.018Z,70.00
2019-05-15T04:21:01.369Z,70.00
2019-05-15T04:23:30.506Z,70.00
2019-05-15T04:25:59.581Z,70.00
2019-05-15T04:28:29.454Z,70.00
2019-05-15T04:30:59.635Z,70.00
2019-05-15T04:33:29.573Z,70.10
2019-05-15T04:35:59.131Z,70.10
2019-05-15T04:38:29.321Z,70.10
2019-05-15T04:40:59.106Z,70.10
2019-05-15T04:43:30.194Z,70.00
2019-05-15T04:46:03.084Z,70.00
2019-05-15T04:48:30.079Z,70.10
2019-05-15T04:50:59.126Z,70.10
2019-05-15T04:53:32.727Z,70.20
2019-05-15T04:55:59.729Z,70.20
2019-05-15T04:58:29.844Z,70.30
2019-05-15T05:00:59.864Z,70.20
2019-05-15T05:03:29.627Z,70.20
2019-05-15T05:05:59.322Z,70.30
2019-05-15T05:08:29.156Z,70.40
2019-05-15T05:10:59.233Z,70.40
2019-05-15T05:13:28.910Z,70.30
2019-05-15T05:15:58.765Z,70.20
2019-05-15T05:18:29.789Z,70.20
2019-05-15T05:20:58.722Z,70.20
2019-05-15T05:23:28.391Z,70.10
2019-05-15T05:25:58.134Z,70.00
2019-05-15T05:28:28.904Z,70.10
2019-05-15T05:30:58.752Z,70.00
2019-05-15T05:33:28.680Z,69.90
2019-05-15T05:35:58.427Z,69.80
2019-05-15T05:38:28.147Z,69.80
2019-05-15T05:40:58.652Z,69.70
2019-05-15T05:43:29.979Z,69.60
2019-05-15T05:46:03.946Z,69.50
2019-05-15T05:48:34.456Z,69.30
2019-05-15T05:51:03.495Z,68.50
2019-05-15T05:53:32.583Z,69.00
2019-05-15T05:56:01.652Z,68.90
2019-05-15T05:58:30.668Z,68.70
2019-05-15T06:00:59.759Z,68.60
2019-05-15T06:03:28.805Z,68.50
2019-05-15T06:05:59.092Z,68.30
2019-05-15T06:08:28.412Z,68.20
2019-05-15T06:10:58.483Z,68.00
2019-05-15T06:13:29.148Z,67.80
2019-05-15T06:15:59.064Z,67.60
2019-05-15T06:18:28.362Z,67.50
2019-05-15T06:20:58.620Z,67.30
2019-05-15T06:23:33.605Z,67.10
2019-05-15T06:25:59.371Z,66.80
2019-05-15T06:28:32.087Z,66.50
2019-05-15T06:31:08.731Z,66.10
2019-05-15T06:33:38.582Z,65.80
2019-05-15T06:36:10.750Z,65.50
2019-05-15T06:38:41.005Z,65.20
2019-05-15T06:41:10.045Z,64.80
2019-05-15T06:43:39.237Z,64.50
2019-05-15T06:46:09.255Z,64.20
2019-05-15T06:48:38.382Z,63.90
2019-05-15T06:51:08.887Z,63.80
2019-05-15T06:53:38.593Z,63.50
2019-05-15T06:56:08.065Z,63.20
2019-05-15T06:58:38.570Z,62.90
2019-05-15T07:01:08.749Z,62.50
2019-05-15T07:03:39.379Z,62.10
2019-05-15T07:06:09.646Z,61.80
2019-05-15T07:08:38.915Z,61.70
2019-05-15T07:11:08.735Z,61.60
2019-05-15T07:13:38.367Z,61.40
2019-05-15T07:16:08.185Z,61.30
2019-05-15T07:18:38.982Z,61.10
2019-05-15T07:21:10.671Z,60.90
2019-05-15T07:23:39.797Z,60.50
2019-05-15T07:26:09.464Z,60.30
2019-05-15T07:28:40.007Z,59.80
2019-05-15T07:31:11.601Z,59.30
2019-05-15T07:33:43.635Z,58.70
2019-05-15T07:36:13.461Z,58.20
2019-05-15T07:38:43.803Z,57.50
2019-05-15T07:41:12.820Z,57.00
2019-05-15T07:43:41.818Z,56.30
2019-05-15T07:46:10.846Z,55.60
2019-05-15T07:48:39.843Z,54.80
2019-05-15T07:51:11.619Z,54.10
2019-05-15T07:53:39.668Z,53.40
2019-05-15T07:56:11.989Z,52.80
2019-05-15T07:58:39.467Z,52.20
2019-05-15T08:01:09.922Z,51.30
2019-05-15T08:03:55.047Z,50.20
2019-05-15T08:06:11.054Z,49.00
2019-05-15T08:08:40.485Z,47.50
2019-05-15T08:11:20.407Z,45.90
2019-05-15T08:13:40.435Z,44.20
2019-05-15T08:16:09.577Z,42.40
2019-05-15T08:18:40.218Z,41.20
2019-05-15T08:21:09.343Z,38.70
2019-05-15T08:23:39.087Z,37.10
2019-05-15T08:26:08.913Z,35.50
2019-05-15T08:28:38.385Z,34.40
2019-05-15T08:31:10.081Z,33.40
2019-05-15T08:33:38.949Z,32.50
2019-05-15T08:36:08.637Z,31.20
2019-05-15T08:38:38.348Z,30.10
2019-05-15T08:41:11.166Z,29.50
2019-05-15T08:43:38.458Z,28.80
2019-05-15T08:46:08.260Z,28.30
2019-05-15T08:48:38.343Z,27.90
2019-05-15T08:51:08.691Z,27.30
2019-05-15T08:53:38.177Z,26.80
2019-05-15T08:56:08.558Z,26.40
2019-05-15T08:58:38.274Z,26.20
2019-05-15T09:01:09.891Z,26.00
2019-05-15T09:03:38.266Z,25.80
2019-05-15T09:06:09.138Z,25.70
2019-05-15T09:08:39.469Z,25.70
2019-05-15T09:11:09.331Z,25.90
2019-05-15T09:13:43.617Z,26.00
2019-05-15T09:16:09.453Z,26.10
2019-05-15T09:18:39.120Z,26.20
2019-05-15T09:21:10.150Z,26.20
2019-05-15T09:23:39.159Z,26.30
2019-05-15T09:26:09.278Z,26.30
2019-05-15T09:28:39.303Z,26.40
2019-05-15T09:31:08.635Z,26.90
2019-05-15T09:33:38.635Z,26.50
2019-05-15T09:36:08.994Z,26.70
2019-05-15T09:38:39.138Z,26.90
2019-05-15T09:41:09.654Z,26.90
2019-05-15T09:43:42.154Z,27.10
2019-05-15T09:46:11.529Z,27.20
2019-05-15T09:48:41.668Z,27.40
2019-05-15T09:51:10.684Z,27.80
2019-05-15T09:53:39.733Z,28.00
2019-05-15T09:56:08.819Z,28.00
2019-05-15T09:58:38.258Z,27.90
2019-05-15T10:01:08.380Z,27.90
2019-05-15T10:03:39.488Z,27.90
2019-05-15T10:06:08.859Z,28.10
2019-05-15T10:08:39.748Z,28.10
2019-05-15T10:11:09.238Z,28.10
2019-05-15T10:13:38.647Z,28.20
2019-05-15T10:16:08.419Z,28.30
2019-05-15T10:18:38.906Z,28.30
2019-05-15T10:21:09.153Z,28.20
2019-05-15T10:23:40.385Z,28.20
2019-05-15T10:26:13.842Z,28.00
2019-05-15T10:28:41.373Z,28.10
2019-05-15T10:31:10.617Z,28.20
2019-05-15T10:33:39.608Z,28.40
2019-05-15T10:36:08.720Z,28.40
2019-05-15T10:38:41.041Z,28.30
2019-05-15T10:41:14.984Z,28.30
2019-05-15T10:43:46.515Z,28.20
2019-05-15T10:46:13.888Z,28.00
2019-05-15T10:48:44.603Z,28.00
2019-05-15T10:51:13.688Z,27.80
2019-05-15T10:53:42.778Z,27.70
2019-05-15T10:56:11.907Z,27.60
2019-05-15T10:58:41.003Z,27.50
2019-05-15T11:01:11.263Z,27.50
2019-05-15T11:03:40.572Z,27.50
2019-05-15T11:06:09.616Z,27.50
2019-05-15T11:08:40.657Z,28.10
2019-05-15T11:11:09.450Z,28.30
2019-05-15T11:13:38.508Z,28.40
2019-05-15T11:16:09.651Z,28.20
2019-05-15T11:18:39.333Z,28.00
2019-05-15T11:21:08.619Z,27.80
2019-05-15T11:23:39.473Z,27.60
2019-05-15T11:26:08.884Z,27.50
2019-05-15T11:28:39.416Z,27.50
2019-05-15T11:31:10.441Z,27.30
2019-05-15T11:33:39.752Z,27.20
2019-05-15T11:36:08.773Z,27.30
2019-05-15T11:38:38.936Z,27.10
2019-05-15T11:41:08.742Z,27.10
2019-05-15T11:43:38.764Z,27.10
2019-05-15T11:46:09.864Z,27.10
2019-05-15T11:48:39.317Z,26.80
2019-05-15T11:51:09.450Z,26.50
2019-05-15T11:53:39.771Z,26.40
2019-05-15T11:56:09.656Z,26.30
2019-05-15T11:58:39.839Z,26.20
2019-05-15T12:01:08.966Z,26.10
2019-05-15T12:03:38.736Z,26.10
2019-05-15T12:06:18.591Z,25.80
2019-05-15T12:08:42.735Z,25.60
2019-05-15T12:11:26.973Z,25.50
2019-05-15T12:13:42.464Z,25.50
2019-05-15T12:16:11.492Z,25.60
2019-05-15T12:18:41.807Z,25.60
2019-05-15T12:21:10.875Z,25.60
2019-05-15T12:23:39.937Z,25.60
2019-05-15T12:26:09.324Z,25.70
2019-05-15T12:28:40.679Z,25.70
2019-05-15T12:31:09.173Z,25.70
2019-05-15T12:33:38.586Z,25.90
2019-05-15T12:36:10.599Z,25.90
2019-05-15T12:38:39.709Z,26.10
2019-05-15T13:01:18.257Z,26.50
2019-05-15T13:03:45.750Z,26.50
2019-05-15T13:06:14.742Z,26.40
2019-05-15T13:08:43.746Z,26.40
2019-05-15T13:11:15.177Z,26.50
2019-05-15T13:13:43.518Z,26.70
2019-05-15T13:16:12.619Z,26.80
2019-05-15T13:18:41.710Z,26.80
2019-05-15T13:21:10.767Z,26.80
2019-05-15T13:23:39.782Z,26.70
2019-05-15T13:26:22.947Z,26.60
2019-05-15T13:28:39.547Z,26.60
2019-05-15T13:31:09.176Z,26.60
2019-05-15T13:33:38.727Z,26.60
2019-05-15T13:36:08.983Z,26.60
2019-05-15T13:38:38.316Z,26.60
2019-05-15T13:41:09.418Z,26.50
2019-05-15T13:43:38.709Z,26.70
2019-05-15T13:46:09.011Z,27.10
2019-05-15T13:48:38.727Z,26.40
2019-05-15T13:51:07.850Z,26.40
2019-05-15T13:53:38.508Z,26.40
2019-05-15T13:56:07.868Z,26.50
2019-05-15T13:58:38.844Z,26.50
2019-05-15T14:01:10.532Z,26.50
2019-05-15T14:03:39.588Z,26.60
2019-05-15T14:06:09.414Z,26.80
2019-05-15T14:08:38.992Z,26.70
2019-05-15T14:11:08.717Z,26.80
2019-05-15T14:13:39.151Z,27.00
2019-05-15T14:16:09.613Z,27.00
2019-05-15T14:18:39.171Z,27.00
2019-05-15T14:21:09.891Z,26.90
2019-05-15T14:23:38.926Z,26.80
2019-05-15T14:26:17.904Z,26.80
2019-05-15T14:28:39.012Z,26.90
2019-05-15T14:31:15.443Z,27.00
2019-05-15T14:33:44.456Z,27.10
2019-05-15T14:36:13.482Z,27.20
2019-05-15T14:38:42.562Z,27.20
2019-05-15T14:41:12.932Z,27.20
2019-05-15T14:43:42.315Z,27.30
2019-05-15T14:46:11.322Z,27.30
2019-05-15T14:48:40.413Z,27.10
2019-05-15T14:51:09.537Z,27.20
2019-05-15T14:53:38.797Z,27.30
2019-05-15T14:56:08.467Z,27.20
2019-05-15T14:58:38.748Z,27.10
2019-05-15T15:01:12.179Z,27.10
2019-05-15T15:03:38.593Z,27.10
2019-05-15T15:06:08.619Z,27.20
2019-05-15T15:08:37.896Z,27.20
2019-05-15T15:11:08.692Z,27.20
2019-05-15T15:13:38.153Z,27.20
2019-05-15T15:16:08.450Z,27.20
2019-05-15T15:18:39.207Z,27.20
2019-05-15T15:21:08.750Z,27.10
2019-05-15T15:23:38.767Z,27.00
2019-05-15T15:26:08.376Z,27.10
2019-05-15T15:28:39.983Z,27.10
2019-05-15T15:31:21.723Z,27.20
2019-05-15T15:34:01.346Z,27.20
2019-05-15T15:36:30.569Z,27.10
2019-05-15T15:38:59.654Z,27.10
2019-05-15T15:41:28.896Z,27.20
2019-05-15T15:43:58.635Z,27.40
2019-05-15T15:46:28.685Z,27.40
2019-05-15T15:48:59.310Z,27.50
2019-05-15T15:51:28.697Z,27.40
2019-05-15T15:54:00.120Z,27.30
2019-05-15T15:56:30.837Z,27.40
2019-05-15T15:58:59.867Z,27.50
2019-05-15T16:01:31.377Z,27.40
2019-05-15T16:03:59.911Z,27.30
2019-05-15T16:06:29.494Z,27.30
2019-05-15T16:08:59.548Z,27.20
2019-05-15T16:11:28.671Z,27.00
2019-05-15T16:13:58.573Z,27.10
2019-05-15T16:16:28.486Z,27.00
2019-05-15T16:18:57.926Z,27.00
2019-05-15T16:21:28.703Z,27.00
2019-05-15T16:23:58.325Z,27.00
2019-05-15T16:26:29.038Z,27.10
2019-05-15T16:29:01.618Z,27.10
2019-05-15T16:31:29.055Z,27.10
2019-05-15T16:33:58.636Z,27.10
2019-05-15T16:36:27.704Z,27.30
2019-05-15T16:39:05.166Z,27.30
2019-05-15T16:41:35.148Z,27.50
2019-05-15T16:44:04.207Z,28.10
2019-05-15T16:46:33.284Z,27.70
2019-05-15T16:49:04.032Z,27.90
2019-05-15T16:51:33.065Z,28.00
2019-05-15T16:54:02.066Z,28.00
2019-05-15T16:56:31.138Z,28.20
2019-05-15T16:59:00.194Z,28.80
2019-05-15T17:01:29.271Z,28.50
2019-05-15T17:03:58.733Z,28.70
2019-05-15T17:06:28.254Z,28.80
2019-05-15T17:08:57.918Z,29.10
2019-05-15T17:11:28.885Z,29.40
2019-05-15T17:14:00.080Z,29.40
2019-05-15T17:16:31.689Z,29.50
2019-05-15T17:19:03.259Z,29.80
2019-05-15T17:21:32.368Z,30.00
2019-05-15T17:24:01.407Z,30.00
2019-05-15T17:26:30.495Z,30.10
2019-05-15T17:28:59.589Z,30.20
2019-05-15T17:31:28.776Z,31.00
2019-05-15T17:33:58.383Z,30.50
2019-05-15T17:36:31.494Z,30.70
2019-05-15T17:38:58.209Z,31.00
2019-05-15T17:41:28.623Z,31.10
2019-05-15T17:43:58.075Z,31.30
2019-05-15T17:46:29.707Z,31.60
2019-05-15T17:49:06.939Z,31.80
2019-05-15T17:51:28.713Z,32.00
2019-05-15T17:53:58.254Z,32.20
2019-05-15T17:56:28.380Z,32.50
2019-05-15T17:58:58.178Z,32.70
2019-05-15T18:01:28.306Z,32.80
2019-05-15T18:03:59.389Z,33.00
2019-05-15T18:06:28.929Z,33.30
2019-05-15T18:08:59.421Z,33.50
2019-05-15T18:11:28.633Z,33.60
2019-05-15T18:13:58.262Z,33.80
2019-05-15T18:16:27.505Z,33.90
2019-05-15T18:18:58.472Z,34.10
2019-05-15T18:21:28.907Z,34.30
2019-05-15T18:23:58.694Z,34.50
2019-05-15T18:26:27.986Z,34.70
2019-05-15T18:28:59.014Z,34.90
2019-05-15T18:31:28.639Z,35.10
2019-05-15T18:33:58.926Z,35.40
2019-05-15T18:36:28.552Z,35.60
2019-05-15T18:38:58.892Z,36.10
2019-05-15T18:41:28.523Z,36.80
2019-05-15T18:43:57.996Z,37.40
2019-05-15T18:46:28.878Z,38.00
2019-05-15T18:48:58.093Z,38.60
2019-05-15T18:51:28.034Z,39.00
2019-05-15T18:53:58.831Z,39.40
2019-05-15T18:56:29.723Z,39.80
2019-05-15T18:58:58.967Z,40.20
2019-05-15T19:01:28.441Z,40.60
2019-05-15T19:03:58.241Z,40.90
2019-05-15T19:06:29.188Z,41.10
2019-05-15T19:08:58.392Z,41.40
2019-05-15T19:11:28.843Z,41.70
2019-05-15T19:13:58.960Z,41.90
2019-05-15T19:16:31.218Z,42.30
2019-05-15T19:19:00.129Z,42.50
2019-05-15T19:21:29.380Z,42.90
2019-05-15T19:23:58.507Z,43.10
2019-05-15T19:26:28.963Z,43.50
2019-05-15T19:28:59.127Z,43.80
2019-05-15T19:31:30.687Z,44.00
2019-05-15T19:33:59.165Z,44.40
2019-05-15T19:36:28.525Z,44.60
2019-05-15T19:38:57.578Z,44.80
2019-05-15T19:41:28.725Z,45.10
2019-05-15T19:43:58.111Z,45.30
2019-05-15T19:46:28.313Z,46.30
2019-05-15T19:48:58.156Z,45.80
2019-05-15T19:51:28.998Z,46.10
2019-05-15T19:53:58.845Z,46.30
2019-05-15T19:56:28.058Z,46.50
2019-05-15T19:58:58.183Z,46.60
2019-05-15T20:01:28.235Z,46.80
2019-05-15T20:03:58.610Z,46.90
2019-05-15T20:06:28.135Z,46.90
2019-05-15T20:08:58.807Z,47.10
2019-05-15T20:11:31.771Z,47.20
2019-05-15T20:14:03.369Z,47.40
2019-05-15T20:16:35.359Z,47.60
2019-05-15T20:19:08.718Z,47.80
2019-05-15T20:21:40.593Z,48.30
2019-05-15T20:24:13.301Z,48.10
2019-05-15T20:26:48.605Z,48.20
2019-05-15T20:29:20.476Z,48.40
2019-05-15T20:31:55.279Z,48.60
2019-05-15T20:34:25.248Z,48.80
2019-05-15T20:36:58.707Z,48.90
2019-05-15T20:39:30.396Z,49.10
2019-05-15T20:42:02.465Z,49.20
2019-05-15T20:44:34.530Z,49.40
2019-05-15T20:47:08.100Z,49.60
2019-05-15T20:49:42.866Z,49.80
2019-05-15T20:52:14.759Z,50.00
2019-05-15T20:54:48.053Z,50.20
2019-05-15T20:57:19.158Z,50.40
2019-05-15T20:59:50.880Z,50.60
2019-05-15T21:02:22.139Z,50.80
2019-05-15T21:04:53.830Z,51.00
2019-05-15T21:07:35.832Z,51.20
2019-05-15T21:09:58.783Z,51.30
2019-05-15T21:12:29.965Z,51.60
2019-05-15T21:15:01.587Z,51.50
2019-05-15T21:17:33.006Z,51.60
2019-05-15T21:20:05.151Z,51.60
2019-05-15T21:22:39.879Z,51.60
2019-05-15T21:25:10.838Z,51.60
2019-05-15T21:27:43.819Z,51.50
2019-05-15T21:30:18.662Z,51.40
2019-05-15T21:32:49.729Z,51.30
2019-05-15T21:35:22.737Z,51.30
2019-05-15T21:37:55.114Z,51.30
2019-05-15T21:40:27.945Z,51.20
2019-05-15T21:43:00.188Z,51.30
2019-05-15T21:45:32.043Z,51.30
2019-05-15T21:48:04.616Z,51.40
2019-05-15T21:50:38.788Z,51.40
2019-05-15T21:53:11.601Z,51.50
2019-05-15T21:55:44.354Z,51.60
2019-05-15T21:58:18.637Z,51.70
2019-05-15T22:00:53.562Z,51.80
2019-05-15T22:03:28.529Z,52.00
2019-05-15T22:06:00.495Z,52.20
2019-05-15T22:08:32.613Z,52.30
2019-05-15T22:11:04.217Z,52.40
2019-05-15T22:13:35.739Z,52.50
2019-05-15T22:16:08.121Z,52.60
2019-05-15T22:18:39.902Z,52.80
2019-05-15T22:21:12.964Z,52.90
2019-05-15T22:23:44.928Z,53.10
2019-05-15T22:26:18.635Z,53.30
2019-05-15T22:28:49.916Z,53.50
2019-05-15T22:31:22.154Z,54.20
2019-05-15T22:33:54.413Z,53.80
2019-05-15T22:36:28.065Z,53.90
2019-05-15T22:38:59.501Z,54.10
2019-05-15T22:41:50.496Z,54.20
2019-05-15T22:44:21.902Z,54.40
2019-05-15T22:46:53.514Z,54.50
2019-05-15T22:49:25.170Z,54.60
2019-05-15T22:51:58.117Z,54.80
2019-05-15T22:54:30.089Z,54.90
2019-05-15T22:57:02.988Z,55.00
2019-05-15T22:59:34.407Z,55.20
2019-05-15T23:02:06.066Z,55.30
2019-05-15T23:04:37.949Z,55.50
2019-05-15T23:07:09.982Z,55.70
2019-05-15T23:09:41.057Z,55.90
2019-05-15T23:12:11.786Z,55.90
2019-05-15T23:14:43.526Z,56.10
2019-05-15T23:17:16.317Z,56.30
2019-05-15T23:19:48.594Z,56.40
2019-05-15T23:22:20.103Z,56.40
2019-05-15T23:24:51.902Z,56.60
2019-05-15T23:27:25.097Z,56.70
2019-05-15T23:29:54.203Z,56.80
2019-05-15T23:32:23.225Z,56.80
2019-05-15T23:34:52.256Z,56.90
2019-05-15T23:37:22.683Z,57.00
2019-05-15T23:39:51.709Z,57.10
2019-05-15T23:42:20.798Z,57.20
2019-05-15T23:44:49.845Z,57.20
2019-05-15T23:47:18.881Z,57.20
2019-05-15T23:49:48.482Z,57.30
2019-05-15T23:52:17.744Z,57.40
2019-05-15T23:55:08.278Z,57.30
2019-05-15T23:57:38.968Z,57.40
